sensor_id;sensor_type;location;lat;lon;timestamp;P1;durP1;ratioP1;P2;durP2;ratioP2
81830;SDS011;71268;44.086;3.070;2023-10-08T00:05:38;6.18;;;1.90;;
81830;SDS011;71268;44.086;3.070;2023-10-08T00:08:05;4.72;;;1.65;;
81830;SDS011;71268;44.086;3.070;2023-10-08T00:10:38;7.53;;;1.80;;
81830;SDS011;71268;44.086;3.070;2023-10-08T00:13:11;4.55;;;1.90;;
81830;SDS011;71268;44.086;3.070;2023-10-08T00:15:40;6.45;;;1.65;;
81830;SDS011;71268;44.086;3.070;2023-10-08T00:18:15;5.03;;;1.83;;
81830;SDS011;71268;44.086;3.070;2023-10-08T00:20:41;4.47;;;1.30;;
81830;SDS011;71268;44.086;3.070;2023-10-08T00:23:12;6.25;;;1.83;;
81830;SDS011;71268;44.086;3.070;2023-10-08T00:25:40;3.78;;;1.40;;
81830;SDS011;71268;44.086;3.070;2023-10-08T00:28:11;5.13;;;2.10;;
81830;SDS011;71268;44.086;3.070;2023-10-08T00:30:41;5.93;;;1.63;;
81830;SDS011;71268;44.086;3.070;2023-10-08T00:33:08;5.35;;;1.70;;
81830;SDS011;71268;44.086;3.070;2023-10-08T00:35:38;3.83;;;2.08;;
81830;SDS011;71268;44.086;3.070;2023-10-08T00:38:06;5.95;;;2.33;;
81830;SDS011;71268;44.086;3.070;2023-10-08T00:40:39;6.15;;;1.85;;
81830;SDS011;71268;44.086;3.070;2023-10-08T00:43:05;7.55;;;2.00;;
81830;SDS011;71268;44.086;3.070;2023-10-08T00:45:35;5.43;;;1.92;;
81830;SDS011;71268;44.086;3.070;2023-10-08T00:48:07;5.30;;;1.80;;
81830;SDS011;71268;44.086;3.070;2023-10-08T00:50:34;6.47;;;1.95;;
81830;SDS011;71268;44.086;3.070;2023-10-08T00:53:08;4.97;;;1.92;;
81830;SDS011;71268;44.086;3.070;2023-10-08T00:55:42;4.38;;;1.75;;
81830;SDS011;71268;44.086;3.070;2023-10-08T00:58:16;4.47;;;1.85;;
81830;SDS011;71268;44.086;3.070;2023-10-08T01:00:50;7.63;;;1.80;;
81830;SDS011;71268;44.086;3.070;2023-10-08T01:03:17;6.50;;;1.92;;
81830;SDS011;71268;44.086;3.070;2023-10-08T01:05:44;5.47;;;1.98;;
81830;SDS011;71268;44.086;3.070;2023-10-08T01:08:14;4.35;;;1.55;;
81830;SDS011;71268;44.086;3.070;2023-10-08T01:10:49;4.57;;;1.55;;
81830;SDS011;71268;44.086;3.070;2023-10-08T01:13:25;5.78;;;2.00;;
81830;SDS011;71268;44.086;3.070;2023-10-08T01:15:52;5.38;;;2.03;;
81830;SDS011;71268;44.086;3.070;2023-10-08T01:18:20;4.57;;;1.50;;
81830;SDS011;71268;44.086;3.070;2023-10-08T01:20:56;5.45;;;1.90;;
81830;SDS011;71268;44.086;3.070;2023-10-08T01:23:29;5.80;;;1.80;;
81830;SDS011;71268;44.086;3.070;2023-10-08T01:25:56;4.82;;;2.35;;
81830;SDS011;71268;44.086;3.070;2023-10-08T01:28:35;6.80;;;1.90;;
81830;SDS011;71268;44.086;3.070;2023-10-08T01:31:01;6.93;;;1.88;;
81830;SDS011;71268;44.086;3.070;2023-10-08T01:33:29;8.90;;;2.45;;
81830;SDS011;71268;44.086;3.070;2023-10-08T01:35:56;9.10;;;1.80;;
81830;SDS011;71268;44.086;3.070;2023-10-08T01:38:28;5.10;;;2.08;;
81830;SDS011;71268;44.086;3.070;2023-10-08T01:40:54;6.13;;;2.40;;
81830;SDS011;71268;44.086;3.070;2023-10-08T01:43:21;6.35;;;2.10;;
81830;SDS011;71268;44.086;3.070;2023-10-08T01:45:48;4.47;;;1.80;;
81830;SDS011;71268;44.086;3.070;2023-10-08T01:48:16;4.28;;;1.67;;
81830;SDS011;71268;44.086;3.070;2023-10-08T01:50:55;5.30;;;1.92;;
81830;SDS011;71268;44.086;3.070;2023-10-08T01:53:26;7.88;;;2.08;;
81830;SDS011;71268;44.086;3.070;2023-10-08T01:55:52;4.82;;;1.63;;
81830;SDS011;71268;44.086;3.070;2023-10-08T01:58:19;6.88;;;2.20;;
81830;SDS011;71268;44.086;3.070;2023-10-08T02:00:45;5.93;;;1.95;;
81830;SDS011;71268;44.086;3.070;2023-10-08T02:03:12;5.00;;;1.63;;
81830;SDS011;71268;44.086;3.070;2023-10-08T02:05:40;6.32;;;1.98;;
81830;SDS011;71268;44.086;3.070;2023-10-08T02:08:07;5.22;;;1.42;;
81830;SDS011;71268;44.086;3.070;2023-10-08T02:10:34;3.83;;;1.35;;
81830;SDS011;71268;44.086;3.070;2023-10-08T02:13:00;5.78;;;1.75;;
81830;SDS011;71268;44.086;3.070;2023-10-08T02:15:27;4.95;;;1.58;;
81830;SDS011;71268;44.086;3.070;2023-10-08T02:17:53;4.90;;;1.88;;
81830;SDS011;71268;44.086;3.070;2023-10-08T02:20:23;6.53;;;1.85;;
81830;SDS011;71268;44.086;3.070;2023-10-08T02:22:49;6.95;;;2.10;;
81830;SDS011;71268;44.086;3.070;2023-10-08T02:25:15;5.47;;;1.88;;
81830;SDS011;71268;44.086;3.070;2023-10-08T02:27:43;5.50;;;1.90;;
81830;SDS011;71268;44.086;3.070;2023-10-08T02:30:09;7.22;;;2.53;;
81830;SDS011;71268;44.086;3.070;2023-10-08T02:32:37;3.80;;;1.42;;
81830;SDS011;71268;44.086;3.070;2023-10-08T02:35:07;3.85;;;1.50;;
81830;SDS011;71268;44.086;3.070;2023-10-08T02:37:36;6.35;;;1.83;;
81830;SDS011;71268;44.086;3.070;2023-10-08T02:40:05;5.22;;;1.70;;
81830;SDS011;71268;44.086;3.070;2023-10-08T02:42:39;4.35;;;1.58;;
81830;SDS011;71268;44.086;3.070;2023-10-08T02:45:07;5.47;;;1.83;;
81830;SDS011;71268;44.086;3.070;2023-10-08T02:47:39;4.60;;;1.70;;
81830;SDS011;71268;44.086;3.070;2023-10-08T02:50:05;5.45;;;1.60;;
81830;SDS011;71268;44.086;3.070;2023-10-08T02:52:33;5.22;;;1.88;;
81830;SDS011;71268;44.086;3.070;2023-10-08T02:55:00;7.00;;;2.17;;
81830;SDS011;71268;44.086;3.070;2023-10-08T02:57:26;5.95;;;1.88;;
81830;SDS011;71268;44.086;3.070;2023-10-08T02:59:54;5.72;;;1.77;;
81830;SDS011;71268;44.086;3.070;2023-10-08T03:02:20;6.20;;;1.77;;
81830;SDS011;71268;44.086;3.070;2023-10-08T03:04:47;6.45;;;1.92;;
81830;SDS011;71268;44.086;3.070;2023-10-08T03:07:15;4.95;;;1.85;;
81830;SDS011;71268;44.086;3.070;2023-10-08T03:09:51;4.82;;;1.60;;
81830;SDS011;71268;44.086;3.070;2023-10-08T03:12:42;6.20;;;2.25;;
81830;SDS011;71268;44.086;3.070;2023-10-08T03:15:08;4.93;;;1.92;;
81830;SDS011;71268;44.086;3.070;2023-10-08T03:17:54;4.50;;;1.77;;
81830;SDS011;71268;44.086;3.070;2023-10-08T03:20:22;4.30;;;1.60;;
81830;SDS011;71268;44.086;3.070;2023-10-08T03:23:08;6.63;;;2.60;;
81830;SDS011;71268;44.086;3.070;2023-10-08T03:25:41;3.85;;;1.67;;
81830;SDS011;71268;44.086;3.070;2023-10-08T03:28:10;6.20;;;2.42;;
81830;SDS011;71268;44.086;3.070;2023-10-08T03:30:38;5.50;;;1.95;;
81830;SDS011;71268;44.086;3.070;2023-10-08T03:33:18;5.78;;;1.92;;
81830;SDS011;71268;44.086;3.070;2023-10-08T03:35:52;6.68;;;2.28;;
81830;SDS011;71268;44.086;3.070;2023-10-08T03:38:19;5.20;;;1.90;;
81830;SDS011;71268;44.086;3.070;2023-10-08T03:41:09;5.70;;;1.77;;
81830;SDS011;71268;44.086;3.070;2023-10-08T03:43:41;6.32;;;1.83;;
81830;SDS011;71268;44.086;3.070;2023-10-08T03:46:39;5.47;;;2.08;;
81830;SDS011;71268;44.086;3.070;2023-10-08T03:49:08;4.70;;;1.65;;
81830;SDS011;71268;44.086;3.070;2023-10-08T03:51:50;5.22;;;1.80;;
81830;SDS011;71268;44.086;3.070;2023-10-08T03:54:20;5.97;;;1.77;;
81830;SDS011;71268;44.086;3.070;2023-10-08T03:56:58;4.88;;;2.30;;
81830;SDS011;71268;44.086;3.070;2023-10-08T03:59:25;6.22;;;1.88;;
81830;SDS011;71268;44.086;3.070;2023-10-08T04:01:59;4.72;;;2.28;;
81830;SDS011;71268;44.086;3.070;2023-10-08T04:04:38;4.63;;;1.80;;
81830;SDS011;71268;44.086;3.070;2023-10-08T04:07:20;4.60;;;1.52;;
81830;SDS011;71268;44.086;3.070;2023-10-08T04:09:50;4.32;;;1.38;;
81830;SDS011;71268;44.086;3.070;2023-10-08T04:12:30;3.60;;;1.58;;
81830;SDS011;71268;44.086;3.070;2023-10-08T04:15:00;4.85;;;1.70;;
81830;SDS011;71268;44.086;3.070;2023-10-08T04:17:26;4.28;;;2.00;;
81830;SDS011;71268;44.086;3.070;2023-10-08T04:19:52;7.63;;;2.70;;
81830;SDS011;71268;44.086;3.070;2023-10-08T04:22:18;5.53;;;1.88;;
81830;SDS011;71268;44.086;3.070;2023-10-08T04:24:44;5.20;;;2.00;;
81830;SDS011;71268;44.086;3.070;2023-10-08T04:27:10;4.63;;;1.80;;
81830;SDS011;71268;44.086;3.070;2023-10-08T04:29:36;3.85;;;1.50;;
81830;SDS011;71268;44.086;3.070;2023-10-08T04:32:03;9.48;;;2.30;;
81830;SDS011;71268;44.086;3.070;2023-10-08T04:34:47;4.90;;;1.83;;
81830;SDS011;71268;44.086;3.070;2023-10-08T04:37:14;5.22;;;2.20;;
81830;SDS011;71268;44.086;3.070;2023-10-08T04:39:45;5.05;;;1.45;;
81830;SDS011;71268;44.086;3.070;2023-10-08T04:42:23;5.18;;;1.55;;
81830;SDS011;71268;44.086;3.070;2023-10-08T04:44:51;5.13;;;1.67;;
81830;SDS011;71268;44.086;3.070;2023-10-08T04:47:17;6.82;;;1.90;;
81830;SDS011;71268;44.086;3.070;2023-10-08T04:49:56;5.88;;;2.03;;
81830;SDS011;71268;44.086;3.070;2023-10-08T04:52:23;5.03;;;1.95;;
81830;SDS011;71268;44.086;3.070;2023-10-08T04:54:50;4.63;;;1.50;;
81830;SDS011;71268;44.086;3.070;2023-10-08T04:57:19;5.57;;;1.65;;
81830;SDS011;71268;44.086;3.070;2023-10-08T04:59:47;6.25;;;1.92;;
81830;SDS011;71268;44.086;3.070;2023-10-08T05:02:16;6.05;;;2.10;;
81830;SDS011;71268;44.086;3.070;2023-10-08T05:04:59;5.15;;;1.60;;
81830;SDS011;71268;44.086;3.070;2023-10-08T05:07:37;4.57;;;2.40;;
81830;SDS011;71268;44.086;3.070;2023-10-08T05:10:12;4.90;;;2.00;;
81830;SDS011;71268;44.086;3.070;2023-10-08T05:12:51;4.70;;;1.55;;
81830;SDS011;71268;44.086;3.070;2023-10-08T05:15:30;6.88;;;2.13;;
81830;SDS011;71268;44.086;3.070;2023-10-08T05:18:07;7.13;;;1.90;;
81830;SDS011;71268;44.086;3.070;2023-10-08T05:20:49;3.72;;;1.95;;
81830;SDS011;71268;44.086;3.070;2023-10-08T05:23:15;3.30;;;1.50;;
81830;SDS011;71268;44.086;3.070;2023-10-08T05:25:48;6.40;;;2.35;;
81830;SDS011;71268;44.086;3.070;2023-10-08T05:28:26;6.97;;;1.80;;
81830;SDS011;71268;44.086;3.070;2023-10-08T05:33:39;5.13;;;1.55;;
81830;SDS011;71268;44.086;3.070;2023-10-08T05:36:11;5.82;;;1.77;;
81830;SDS011;71268;44.086;3.070;2023-10-08T05:38:44;5.22;;;1.98;;
81830;SDS011;71268;44.086;3.070;2023-10-08T05:41:29;5.28;;;1.80;;
81830;SDS011;71268;44.086;3.070;2023-10-08T05:44:18;6.22;;;1.80;;
81830;SDS011;71268;44.086;3.070;2023-10-08T05:46:44;7.70;;;2.42;;
81830;SDS011;71268;44.086;3.070;2023-10-08T05:49:32;6.65;;;2.78;;
81830;SDS011;71268;44.086;3.070;2023-10-08T05:51:58;4.53;;;2.00;;
81830;SDS011;71268;44.086;3.070;2023-10-08T05:54:24;6.32;;;1.77;;
81830;SDS011;71268;44.086;3.070;2023-10-08T05:59:35;6.40;;;2.15;;
81830;SDS011;71268;44.086;3.070;2023-10-08T06:02:06;4.38;;;1.42;;
81830;SDS011;71268;44.086;3.070;2023-10-08T06:04:52;5.00;;;1.52;;
81830;SDS011;71268;44.086;3.070;2023-10-08T06:07:35;4.78;;;1.60;;
81830;SDS011;71268;44.086;3.070;2023-10-08T06:10:13;5.80;;;2.05;;
81830;SDS011;71268;44.086;3.070;2023-10-08T06:13:12;6.22;;;1.92;;
81830;SDS011;71268;44.086;3.070;2023-10-08T06:15:51;6.13;;;1.60;;
81830;SDS011;71268;44.086;3.070;2023-10-08T06:18:21;5.53;;;1.67;;
81830;SDS011;71268;44.086;3.070;2023-10-08T06:20:54;4.88;;;2.05;;
81830;SDS011;71268;44.086;3.070;2023-10-08T06:23:20;3.78;;;1.33;;
81830;SDS011;71268;44.086;3.070;2023-10-08T06:25:48;5.05;;;1.60;;
81830;SDS011;71268;44.086;3.070;2023-10-08T06:28:34;4.30;;;1.67;;
81830;SDS011;71268;44.086;3.070;2023-10-08T06:31:01;5.78;;;1.83;;
81830;SDS011;71268;44.086;3.070;2023-10-08T06:33:31;5.85;;;1.77;;
81830;SDS011;71268;44.086;3.070;2023-10-08T06:35:58;5.90;;;2.50;;
81830;SDS011;71268;44.086;3.070;2023-10-08T06:38:31;7.18;;;1.83;;
81830;SDS011;71268;44.086;3.070;2023-10-08T06:41:01;5.50;;;2.20;;
81830;SDS011;71268;44.086;3.070;2023-10-08T06:43:49;5.13;;;1.75;;
81830;SDS011;71268;44.086;3.070;2023-10-08T06:46:27;5.10;;;2.13;;
81830;SDS011;71268;44.086;3.070;2023-10-08T06:48:55;5.75;;;2.08;;
81830;SDS011;71268;44.086;3.070;2023-10-08T06:51:22;6.70;;;2.10;;
81830;SDS011;71268;44.086;3.070;2023-10-08T06:53:51;7.35;;;1.95;;
81830;SDS011;71268;44.086;3.070;2023-10-08T06:56:19;5.15;;;1.85;;
81830;SDS011;71268;44.086;3.070;2023-10-08T06:58:46;6.80;;;2.13;;
81830;SDS011;71268;44.086;3.070;2023-10-08T07:01:13;8.82;;;2.35;;
81830;SDS011;71268;44.086;3.070;2023-10-08T07:03:46;6.25;;;1.90;;
81830;SDS011;71268;44.086;3.070;2023-10-08T07:06:14;4.50;;;1.30;;
81830;SDS011;71268;44.086;3.070;2023-10-08T07:08:56;4.60;;;1.20;;
81830;SDS011;71268;44.086;3.070;2023-10-08T07:11:24;3.42;;;1.70;;
81830;SDS011;71268;44.086;3.070;2023-10-08T07:13:52;7.28;;;2.10;;
81830;SDS011;71268;44.086;3.070;2023-10-08T07:16:18;6.57;;;2.00;;
81830;SDS011;71268;44.086;3.070;2023-10-08T07:18:46;4.70;;;1.95;;
81830;SDS011;71268;44.086;3.070;2023-10-08T07:21:26;7.03;;;2.50;;
81830;SDS011;71268;44.086;3.070;2023-10-08T07:24:10;5.68;;;1.83;;
81830;SDS011;71268;44.086;3.070;2023-10-08T07:26:40;5.70;;;1.80;;
81830;SDS011;71268;44.086;3.070;2023-10-08T07:29:11;7.32;;;1.58;;
81830;SDS011;71268;44.086;3.070;2023-10-08T07:31:39;5.60;;;2.05;;
81830;SDS011;71268;44.086;3.070;2023-10-08T07:34:13;5.85;;;1.75;;
81830;SDS011;71268;44.086;3.070;2023-10-08T07:36:45;5.32;;;1.63;;
81830;SDS011;71268;44.086;3.070;2023-10-08T07:39:15;5.07;;;1.90;;
81830;SDS011;71268;44.086;3.070;2023-10-08T07:41:59;4.78;;;1.60;;
81830;SDS011;71268;44.086;3.070;2023-10-08T07:44:26;5.13;;;1.73;;
81830;SDS011;71268;44.086;3.070;2023-10-08T07:46:55;7.35;;;2.72;;
81830;SDS011;71268;44.086;3.070;2023-10-08T07:49:22;6.85;;;1.75;;
81830;SDS011;71268;44.086;3.070;2023-10-08T07:51:48;6.75;;;1.98;;
81830;SDS011;71268;44.086;3.070;2023-10-08T07:56:44;5.03;;;1.83;;
81830;SDS011;71268;44.086;3.070;2023-10-08T07:59:11;7.50;;;2.08;;
81830;SDS011;71268;44.086;3.070;2023-10-08T08:01:40;6.28;;;2.63;;
81830;SDS011;71268;44.086;3.070;2023-10-08T08:04:10;4.07;;;2.05;;
81830;SDS011;71268;44.086;3.070;2023-10-08T08:06:46;4.75;;;1.92;;
81830;SDS011;71268;44.086;3.070;2023-10-08T08:09:15;5.57;;;1.80;;
81830;SDS011;71268;44.086;3.070;2023-10-08T08:11:44;5.97;;;1.95;;
81830;SDS011;71268;44.086;3.070;2023-10-08T08:14:16;5.47;;;2.03;;
81830;SDS011;71268;44.086;3.070;2023-10-08T08:16:43;4.55;;;1.90;;
81830;SDS011;71268;44.086;3.070;2023-10-08T08:19:13;5.68;;;1.88;;
81830;SDS011;71268;44.086;3.070;2023-10-08T08:21:41;4.88;;;1.80;;
81830;SDS011;71268;44.086;3.070;2023-10-08T08:24:10;6.85;;;1.63;;
81830;SDS011;71268;44.086;3.070;2023-10-08T08:26:37;6.68;;;2.08;;
81830;SDS011;71268;44.086;3.070;2023-10-08T08:29:26;5.57;;;1.63;;
81830;SDS011;71268;44.086;3.070;2023-10-08T08:31:52;6.40;;;1.55;;
81830;SDS011;71268;44.086;3.070;2023-10-08T08:34:18;5.97;;;2.00;;
81830;SDS011;71268;44.086;3.070;2023-10-08T08:36:45;5.30;;;1.80;;
81830;SDS011;71268;44.086;3.070;2023-10-08T08:39:11;4.72;;;1.63;;
81830;SDS011;71268;44.086;3.070;2023-10-08T08:41:54;7.07;;;1.70;;
81830;SDS011;71268;44.086;3.070;2023-10-08T08:44:26;6.60;;;2.22;;
81830;SDS011;71268;44.086;3.070;2023-10-08T08:46:54;6.72;;;1.80;;
81830;SDS011;71268;44.086;3.070;2023-10-08T08:49:23;7.63;;;2.10;;
81830;SDS011;71268;44.086;3.070;2023-10-08T08:51:49;7.10;;;1.88;;
81830;SDS011;71268;44.086;3.070;2023-10-08T08:54:18;4.93;;;1.60;;
81830;SDS011;71268;44.086;3.070;2023-10-08T08:56:45;6.65;;;1.60;;
81830;SDS011;71268;44.086;3.070;2023-10-08T08:59:12;5.22;;;2.20;;
81830;SDS011;71268;44.086;3.070;2023-10-08T09:01:38;5.85;;;2.20;;
81830;SDS011;71268;44.086;3.070;2023-10-08T09:04:04;6.85;;;2.35;;
81830;SDS011;71268;44.086;3.070;2023-10-08T09:06:34;5.75;;;1.85;;
81830;SDS011;71268;44.086;3.070;2023-10-08T09:09:11;4.47;;;2.20;;
81830;SDS011;71268;44.086;3.070;2023-10-08T09:11:51;6.22;;;2.40;;
81830;SDS011;71268;44.086;3.070;2023-10-08T09:14:21;4.93;;;2.00;;
81830;SDS011;71268;44.086;3.070;2023-10-08T09:16:48;6.18;;;2.13;;
81830;SDS011;71268;44.086;3.070;2023-10-08T09:19:15;6.75;;;2.25;;
81830;SDS011;71268;44.086;3.070;2023-10-08T09:24:33;7.80;;;2.10;;
81830;SDS011;71268;44.086;3.070;2023-10-08T09:27:01;7.43;;;2.28;;
81830;SDS011;71268;44.086;3.070;2023-10-08T09:29:27;6.90;;;2.08;;
81830;SDS011;71268;44.086;3.070;2023-10-08T09:31:58;6.28;;;2.00;;
81830;SDS011;71268;44.086;3.070;2023-10-08T09:34:31;7.20;;;2.08;;
81830;SDS011;71268;44.086;3.070;2023-10-08T09:36:58;4.90;;;2.35;;
81830;SDS011;71268;44.086;3.070;2023-10-08T09:39:28;6.07;;;2.72;;
81830;SDS011;71268;44.086;3.070;2023-10-08T09:41:56;7.90;;;2.35;;
81830;SDS011;71268;44.086;3.070;2023-10-08T09:44:22;6.38;;;2.30;;
81830;SDS011;71268;44.086;3.070;2023-10-08T09:47:12;6.10;;;2.60;;
81830;SDS011;71268;44.086;3.070;2023-10-08T09:49:40;5.47;;;2.08;;
81830;SDS011;71268;44.086;3.070;2023-10-08T09:52:09;4.55;;;1.80;;
81830;SDS011;71268;44.086;3.070;2023-10-08T09:54:42;4.70;;;2.17;;
81830;SDS011;71268;44.086;3.070;2023-10-08T09:57:10;5.70;;;1.98;;
81830;SDS011;71268;44.086;3.070;2023-10-08T09:59:36;6.28;;;2.40;;
81830;SDS011;71268;44.086;3.070;2023-10-08T10:02:06;8.45;;;2.58;;
81830;SDS011;71268;44.086;3.070;2023-10-08T10:04:35;6.80;;;2.17;;
81830;SDS011;71268;44.086;3.070;2023-10-08T10:07:11;6.25;;;2.42;;
81830;SDS011;71268;44.086;3.070;2023-10-08T10:09:38;7.78;;;2.08;;
81830;SDS011;71268;44.086;3.070;2023-10-08T10:12:05;5.82;;;2.45;;
81830;SDS011;71268;44.086;3.070;2023-10-08T10:14:41;6.88;;;2.72;;
81830;SDS011;71268;44.086;3.070;2023-10-08T10:17:08;8.13;;;3.13;;
81830;SDS011;71268;44.086;3.070;2023-10-08T10:19:35;6.57;;;2.50;;
81830;SDS011;71268;44.086;3.070;2023-10-08T10:22:01;6.47;;;2.60;;
81830;SDS011;71268;44.086;3.070;2023-10-08T10:24:35;7.35;;;2.80;;
81830;SDS011;71268;44.086;3.070;2023-10-08T10:27:13;7.53;;;2.65;;
81830;SDS011;71268;44.086;3.070;2023-10-08T10:29:40;5.80;;;2.28;;
81830;SDS011;71268;44.086;3.070;2023-10-08T10:32:09;5.80;;;2.38;;
81830;SDS011;71268;44.086;3.070;2023-10-08T10:34:37;6.97;;;2.20;;
81830;SDS011;71268;44.086;3.070;2023-10-08T10:37:03;7.57;;;2.85;;
81830;SDS011;71268;44.086;3.070;2023-10-08T10:42:20;5.63;;;2.47;;
81830;SDS011;71268;44.086;3.070;2023-10-08T10:44:46;10.23;;;2.83;;
81830;SDS011;71268;44.086;3.070;2023-10-08T10:47:14;8.30;;;3.28;;
81830;SDS011;71268;44.086;3.070;2023-10-08T10:49:41;9.25;;;2.97;;
81830;SDS011;71268;44.086;3.070;2023-10-08T10:52:17;6.43;;;2.78;;
81830;SDS011;71268;44.086;3.070;2023-10-08T10:54:56;8.60;;;2.50;;
81830;SDS011;71268;44.086;3.070;2023-10-08T10:57:26;7.13;;;2.33;;
81830;SDS011;71268;44.086;3.070;2023-10-08T11:00:03;8.95;;;2.90;;
81830;SDS011;71268;44.086;3.070;2023-10-08T11:02:59;6.40;;;2.72;;
81830;SDS011;71268;44.086;3.070;2023-10-08T11:05:27;8.55;;;2.72;;
81830;SDS011;71268;44.086;3.070;2023-10-08T11:07:56;5.93;;;2.47;;
81830;SDS011;71268;44.086;3.070;2023-10-08T11:10:37;7.10;;;2.38;;
81830;SDS011;71268;44.086;3.070;2023-10-08T11:13:06;6.18;;;2.58;;
81830;SDS011;71268;44.086;3.070;2023-10-08T11:15:43;6.10;;;3.00;;
81830;SDS011;71268;44.086;3.070;2023-10-08T11:18:14;6.47;;;2.20;;
81830;SDS011;71268;44.086;3.070;2023-10-08T11:20:41;7.78;;;2.83;;
81830;SDS011;71268;44.086;3.070;2023-10-08T11:23:54;5.55;;;2.28;;
81830;SDS011;71268;44.086;3.070;2023-10-08T11:25:58;4.47;;;2.05;;
81830;SDS011;71268;44.086;3.070;2023-10-08T11:28:29;7.25;;;2.65;;
81830;SDS011;71268;44.086;3.070;2023-10-08T11:30:56;4.18;;;1.88;;
81830;SDS011;71268;44.086;3.070;2023-10-08T11:33:24;7.55;;;2.70;;
81830;SDS011;71268;44.086;3.070;2023-10-08T11:35:58;5.93;;;2.35;;
81830;SDS011;71268;44.086;3.070;2023-10-08T11:38:26;8.07;;;3.03;;
81830;SDS011;71268;44.086;3.070;2023-10-08T11:40:55;5.82;;;2.58;;
81830;SDS011;71268;44.086;3.070;2023-10-08T11:43:22;7.47;;;2.70;;
81830;SDS011;71268;44.086;3.070;2023-10-08T11:45:48;6.75;;;3.08;;
81830;SDS011;71268;44.086;3.070;2023-10-08T11:48:15;9.55;;;3.42;;
81830;SDS011;71268;44.086;3.070;2023-10-08T11:50:53;6.93;;;3.00;;
81830;SDS011;71268;44.086;3.070;2023-10-08T11:55:49;5.55;;;2.65;;
81830;SDS011;71268;44.086;3.070;2023-10-08T11:58:20;6.38;;;2.80;;
81830;SDS011;71268;44.086;3.070;2023-10-08T12:00:51;7.70;;;3.05;;
81830;SDS011;71268;44.086;3.070;2023-10-08T12:03:17;5.05;;;2.75;;
81830;SDS011;71268;44.086;3.070;2023-10-08T12:05:44;6.50;;;3.25;;
81830;SDS011;71268;44.086;3.070;2023-10-08T12:08:17;10.15;;;3.63;;
81830;SDS011;71268;44.086;3.070;2023-10-08T12:10:45;5.95;;;2.72;;
81830;SDS011;71268;44.086;3.070;2023-10-08T12:13:13;5.43;;;2.88;;
81830;SDS011;71268;44.086;3.070;2023-10-08T12:15:41;4.82;;;2.42;;
81830;SDS011;71268;44.086;3.070;2023-10-08T12:18:09;7.40;;;2.97;;
81830;SDS011;71268;44.086;3.070;2023-10-08T12:20:41;6.68;;;3.03;;
81830;SDS011;71268;44.086;3.070;2023-10-08T12:23:11;7.10;;;3.20;;
81830;SDS011;71268;44.086;3.070;2023-10-08T12:25:48;6.20;;;2.88;;
81830;SDS011;71268;44.086;3.070;2023-10-08T12:28:16;6.47;;;2.60;;
81830;SDS011;71268;44.086;3.070;2023-10-08T12:30:43;6.07;;;3.22;;
81830;SDS011;71268;44.086;3.070;2023-10-08T12:33:10;4.82;;;2.50;;
81830;SDS011;71268;44.086;3.070;2023-10-08T12:35:40;6.38;;;2.70;;
81830;SDS011;71268;44.086;3.070;2023-10-08T12:38:06;8.32;;;2.72;;
81830;SDS011;71268;44.086;3.070;2023-10-08T12:40:34;4.88;;;2.30;;
81830;SDS011;71268;44.086;3.070;2023-10-08T12:43:15;6.47;;;3.15;;
81830;SDS011;71268;44.086;3.070;2023-10-08T12:45:50;6.72;;;3.45;;
81830;SDS011;71268;44.086;3.070;2023-10-08T12:50:52;7.65;;;2.95;;
81830;SDS011;71268;44.086;3.070;2023-10-08T12:53:21;5.38;;;2.65;;
81830;SDS011;71268;44.086;3.070;2023-10-08T12:56:05;5.88;;;2.35;;
81830;SDS011;71268;44.086;3.070;2023-10-08T12:58:35;5.95;;;2.80;;
81830;SDS011;71268;44.086;3.070;2023-10-08T13:01:06;6.65;;;2.80;;
81830;SDS011;71268;44.086;3.070;2023-10-08T13:03:34;6.13;;;3.08;;
81830;SDS011;71268;44.086;3.070;2023-10-08T13:06:06;5.78;;;2.45;;
81830;SDS011;71268;44.086;3.070;2023-10-08T13:08:36;5.50;;;3.05;;
81830;SDS011;71268;44.086;3.070;2023-10-08T13:11:02;6.50;;;2.78;;
81830;SDS011;71268;44.086;3.070;2023-10-08T13:13:29;7.57;;;3.25;;
81830;SDS011;71268;44.086;3.070;2023-10-08T13:15:55;5.43;;;2.75;;
81830;SDS011;71268;44.086;3.070;2023-10-08T13:18:25;6.80;;;2.63;;
81830;SDS011;71268;44.086;3.070;2023-10-08T13:20:51;5.65;;;2.78;;
81830;SDS011;71268;44.086;3.070;2023-10-08T13:23:18;5.13;;;2.50;;
81830;SDS011;71268;44.086;3.070;2023-10-08T13:25:46;6.05;;;3.00;;
81830;SDS011;71268;44.086;3.070;2023-10-08T13:28:19;5.78;;;2.70;;
81830;SDS011;71268;44.086;3.070;2023-10-08T13:30:46;6.20;;;2.70;;
81830;SDS011;71268;44.086;3.070;2023-10-08T13:33:12;4.80;;;2.42;;
81830;SDS011;71268;44.086;3.070;2023-10-08T13:35:38;6.65;;;2.45;;
81830;SDS011;71268;44.086;3.070;2023-10-08T13:38:04;5.18;;;2.40;;
81830;SDS011;71268;44.086;3.070;2023-10-08T13:40:35;5.65;;;2.85;;
81830;SDS011;71268;44.086;3.070;2023-10-08T13:43:05;7.82;;;2.95;;
81830;SDS011;71268;44.086;3.070;2023-10-08T13:45:31;6.13;;;3.08;;
81830;SDS011;71268;44.086;3.070;2023-10-08T13:48:02;8.07;;;2.42;;
81830;SDS011;71268;44.086;3.070;2023-10-08T13:50:30;4.28;;;2.75;;
81830;SDS011;71268;44.086;3.070;2023-10-08T13:52:56;8.25;;;2.75;;
81830;SDS011;71268;44.086;3.070;2023-10-08T13:55:23;7.65;;;2.38;;
81830;SDS011;71268;44.086;3.070;2023-10-08T13:57:53;8.15;;;2.72;;
81830;SDS011;71268;44.086;3.070;2023-10-08T14:00:19;8.63;;;3.00;;
81830;SDS011;71268;44.086;3.070;2023-10-08T14:02:51;5.22;;;2.25;;
81830;SDS011;71268;44.086;3.070;2023-10-08T14:05:21;6.30;;;2.70;;
81830;SDS011;71268;44.086;3.070;2023-10-08T14:07:50;6.22;;;2.40;;
81830;SDS011;71268;44.086;3.070;2023-10-08T14:10:18;5.97;;;2.97;;
81830;SDS011;71268;44.086;3.070;2023-10-08T14:12:45;9.45;;;3.40;;
81830;SDS011;71268;44.086;3.070;2023-10-08T14:15:14;5.53;;;2.53;;
81830;SDS011;71268;44.086;3.070;2023-10-08T14:17:41;7.10;;;2.70;;
81830;SDS011;71268;44.086;3.070;2023-10-08T14:20:08;5.57;;;2.47;;
81830;SDS011;71268;44.086;3.070;2023-10-08T14:22:38;6.10;;;2.60;;
81830;SDS011;71268;44.086;3.070;2023-10-08T14:25:06;6.55;;;2.83;;
81830;SDS011;71268;44.086;3.070;2023-10-08T14:27:37;5.13;;;2.13;;
81830;SDS011;71268;44.086;3.070;2023-10-08T14:30:08;5.95;;;2.67;;
81830;SDS011;71268;44.086;3.070;2023-10-08T14:32:43;8.07;;;2.40;;
81830;SDS011;71268;44.086;3.070;2023-10-08T14:35:12;5.88;;;2.15;;
81830;SDS011;71268;44.086;3.070;2023-10-08T14:37:57;8.35;;;2.90;;
81830;SDS011;71268;44.086;3.070;2023-10-08T14:40:42;6.20;;;2.45;;
81830;SDS011;71268;44.086;3.070;2023-10-08T14:43:26;7.45;;;2.40;;
81830;SDS011;71268;44.086;3.070;2023-10-08T14:45:56;8.73;;;2.70;;
81830;SDS011;71268;44.086;3.070;2023-10-08T14:48:24;5.60;;;2.40;;
81830;SDS011;71268;44.086;3.070;2023-10-08T14:50:53;6.10;;;2.47;;
81830;SDS011;71268;44.086;3.070;2023-10-08T14:53:19;7.60;;;3.17;;
81830;SDS011;71268;44.086;3.070;2023-10-08T14:55:45;8.88;;;2.65;;
81830;SDS011;71268;44.086;3.070;2023-10-08T14:58:12;5.60;;;2.38;;
81830;SDS011;71268;44.086;3.070;2023-10-08T15:00:39;7.07;;;2.60;;
81830;SDS011;71268;44.086;3.070;2023-10-08T15:03:07;7.35;;;2.80;;
81830;SDS011;71268;44.086;3.070;2023-10-08T15:05:33;6.65;;;3.10;;
81830;SDS011;71268;44.086;3.070;2023-10-08T15:08:01;5.72;;;2.80;;
81830;SDS011;71268;44.086;3.070;2023-10-08T15:10:32;7.78;;;2.47;;
81830;SDS011;71268;44.086;3.070;2023-10-08T15:12:58;6.32;;;2.75;;
81830;SDS011;71268;44.086;3.070;2023-10-08T15:15:24;6.60;;;2.72;;
81830;SDS011;71268;44.086;3.070;2023-10-08T15:17:50;5.50;;;2.55;;
81830;SDS011;71268;44.086;3.070;2023-10-08T15:20:16;6.32;;;2.60;;
81830;SDS011;71268;44.086;3.070;2023-10-08T15:22:45;4.85;;;2.42;;
81830;SDS011;71268;44.086;3.070;2023-10-08T15:25:12;5.75;;;1.88;;
81830;SDS011;71268;44.086;3.070;2023-10-08T15:27:39;7.35;;;2.80;;
81830;SDS011;71268;44.086;3.070;2023-10-08T15:30:09;5.07;;;2.35;;
81830;SDS011;71268;44.086;3.070;2023-10-08T15:32:40;5.78;;;2.55;;